createdAt,value
2019-06-08T00:00:13.205Z,1008.05
2019-06-08T00:01:12.245Z,1008.03
2019-06-08T00:02:12.514Z,1007.99
2019-06-08T00:03:13.039Z,1008.06
2019-06-08T00:04:12.857Z,1008.03
2019-06-08T00:05:12.466Z,1008.01
2019-06-08T00:06:12.495Z,1008.03
2019-06-08T00:07:12.957Z,1008.00
2019-06-08T00:08:11.141Z,1008.01
2019-06-08T00:09:11.141Z,1008.03
2019-06-08T00:10:11.139Z,1008.02
2019-06-08T00:11:11.140Z,1008.03
2019-06-08T00:12:11.155Z,1008.02
2019-06-08T00:13:11.146Z,1007.99
2019-06-08T00:14:11.142Z,1007.99
2019-06-08T00:15:11.146Z,1008.01
2019-06-08T00:16:11.145Z,1007.98
2019-06-08T00:17:24.297Z,1008.02
2019-06-08T00:18:11.218Z,1008.03
2019-06-08T00:19:11.147Z,1008.03
2019-06-08T00:20:11.149Z,1008.10
2019-06-08T00:21:11.188Z,1008.08
2019-06-08T00:22:11.149Z,1008.14
2019-06-08T00:23:11.156Z,1008.19
2019-06-08T00:24:11.151Z,1008.15
2019-06-08T00:25:11.151Z,1008.09
2019-06-08T00:26:11.160Z,1008.06
2019-06-08T00:27:11.154Z,1008.04
2019-06-08T00:28:11.153Z,1008.19
2019-06-08T00:29:11.152Z,1008.28
2019-06-08T00:30:11.158Z,1008.29
2019-06-08T00:31:11.157Z,1008.29
2019-06-08T00:32:11.161Z,1008.21
2019-06-08T00:33:11.203Z,1008.23
2019-06-08T00:34:11.157Z,1008.25
2019-06-08T00:35:11.159Z,1008.33
2019-06-08T00:36:11.168Z,1008.39
2019-06-08T00:37:11.205Z,1008.41
2019-06-08T00:38:11.162Z,1008.43
2019-06-08T00:39:11.184Z,1008.42
2019-06-08T00:40:11.189Z,1008.48
2019-06-08T00:41:11.159Z,1008.47
2019-06-08T00:42:11.203Z,1008.47
2019-06-08T00:43:11.170Z,1008.54
2019-06-08T00:44:11.175Z,1008.55
2019-06-08T00:45:11.167Z,1008.53
2019-06-08T00:46:11.169Z,1008.54
2019-06-08T00:47:11.170Z,1008.60
2019-06-08T00:48:11.174Z,1008.64
2019-06-08T00:49:11.170Z,1008.62
2019-06-08T00:50:11.169Z,1008.65
2019-06-08T00:51:11.175Z,1008.64
2019-06-08T00:52:11.195Z,1008.70
2019-06-08T00:53:11.174Z,1008.71
2019-06-08T00:54:11.175Z,1008.77
2019-06-08T00:55:11.175Z,1008.76
2019-06-08T00:56:11.179Z,1008.75
2019-06-08T00:57:11.188Z,1008.76
2019-06-08T00:58:11.223Z,1008.72
2019-06-08T00:59:11.180Z,1008.81
2019-06-08T01:00:11.694Z,1008.76
2019-06-08T01:01:11.180Z,1008.73
2019-06-08T01:02:11.185Z,1008.72
2019-06-08T01:03:11.191Z,1008.73
2019-06-08T01:04:11.185Z,1008.76
2019-06-08T01:05:11.187Z,1008.78
2019-06-08T01:06:11.214Z,1008.86
2019-06-08T01:07:11.185Z,1008.85
2019-06-08T01:08:11.220Z,1008.89
2019-06-08T01:09:11.184Z,1008.86
2019-06-08T01:10:11.185Z,1008.85
2019-06-08T01:11:11.187Z,1008.89
2019-06-08T01:12:11.236Z,1008.93
2019-06-08T01:13:11.191Z,1008.96
2019-06-08T01:14:11.188Z,1008.97
2019-06-08T01:15:11.271Z,1008.94
2019-06-08T01:16:11.192Z,1008.97
2019-06-08T01:17:11.193Z,1008.93
2019-06-08T01:18:11.199Z,1008.95
2019-06-08T01:19:11.196Z,1008.96
2019-06-08T01:20:11.196Z,1009.00
2019-06-08T01:21:11.198Z,1009.01
2019-06-08T01:22:11.197Z,1008.95
2019-06-08T01:23:11.199Z,1008.99
2019-06-08T01:24:11.201Z,1008.87
2019-06-08T01:25:11.201Z,1009.05
2019-06-08T01:26:11.200Z,1009.07
2019-06-08T01:27:11.205Z,1009.11
2019-06-08T01:28:11.205Z,1009.22
2019-06-08T01:29:11.206Z,1009.21
2019-06-08T01:30:11.206Z,1009.19
2019-06-08T01:31:11.206Z,1009.22
2019-06-08T01:32:11.207Z,1009.23
2019-06-08T01:33:11.217Z,1009.30
2019-06-08T01:34:11.209Z,1009.25
2019-06-08T01:35:11.211Z,1009.30
2019-06-08T01:36:11.214Z,1009.34
2019-06-08T01:37:11.209Z,1009.39
2019-06-08T01:38:11.210Z,1009.45
2019-06-08T01:39:11.213Z,1009.48
2019-06-08T01:40:11.231Z,1009.47
2019-06-08T01:41:11.213Z,1009.49
2019-06-08T01:42:11.217Z,1009.47
2019-06-08T01:43:11.224Z,1009.54
2019-06-08T01:44:11.219Z,1009.60
2019-06-08T01:45:11.217Z,1009.62
2019-06-08T01:46:11.218Z,1009.64
2019-06-08T01:47:11.226Z,1009.63
2019-06-08T01:48:19.963Z,1009.64
2019-06-08T01:49:11.224Z,1009.67
2019-06-08T01:50:11.224Z,1009.77
2019-06-08T01:51:11.222Z,1009.77
2019-06-08T01:52:11.229Z,1009.80
2019-06-08T01:53:11.225Z,1009.91
2019-06-08T01:54:11.229Z,1009.99
2019-06-08T01:55:11.271Z,1009.89
2019-06-08T01:56:11.229Z,1010.05
2019-06-08T01:57:11.228Z,1010.03
2019-06-08T01:58:11.238Z,1010.15
2019-06-08T01:59:11.232Z,1010.15
2019-06-08T02:00:29.640Z,1010.28
2019-06-08T02:01:11.235Z,1010.32
2019-06-08T02:02:11.235Z,1010.27
2019-06-08T02:03:11.235Z,1010.21
2019-06-08T02:04:11.235Z,1010.37
2019-06-08T02:05:11.547Z,1010.41
2019-06-08T02:06:11.269Z,1010.56
2019-06-08T02:07:11.236Z,1010.37
2019-06-08T02:08:11.239Z,1010.34
2019-06-08T02:09:11.236Z,1010.32
2019-06-08T02:10:11.243Z,1010.36
2019-06-08T02:11:11.244Z,1010.33
2019-06-08T02:12:11.256Z,1010.29
2019-06-08T02:13:11.245Z,1010.32
2019-06-08T02:14:11.240Z,1010.35
2019-06-08T02:15:11.241Z,1010.22
2019-06-08T02:16:11.243Z,1010.38
2019-06-08T02:17:11.241Z,1010.47
2019-06-08T02:18:11.240Z,1010.43
2019-06-08T02:19:11.300Z,1010.41
2019-06-08T02:20:11.241Z,1010.46
2019-06-08T02:21:11.243Z,1010.54
2019-06-08T02:22:11.245Z,1010.58
2019-06-08T02:23:11.239Z,1010.62
2019-06-08T02:24:11.239Z,1010.60
2019-06-08T02:25:11.239Z,1010.75
2019-06-08T02:26:11.239Z,1010.74
2019-06-08T02:27:11.240Z,1010.84
2019-06-08T02:28:11.238Z,1010.93
2019-06-08T02:29:11.245Z,1010.92
2019-06-08T02:30:11.237Z,1011.02
2019-06-08T02:31:11.240Z,1011.06
2019-06-08T02:32:11.242Z,1011.02
2019-06-08T02:33:11.242Z,1011.03
2019-06-08T02:34:11.239Z,1011.04
2019-06-08T02:35:11.235Z,1011.11
2019-06-08T02:36:11.239Z,1011.12
2019-06-08T02:37:11.241Z,1011.13
2019-06-08T02:38:11.236Z,1011.19
2019-06-08T02:39:11.241Z,1011.20
2019-06-08T02:40:11.241Z,1011.22
2019-06-08T02:41:11.234Z,1011.26
2019-06-08T02:42:11.238Z,1011.30
2019-06-08T02:43:11.235Z,1011.27
2019-06-08T02:44:11.238Z,1011.34
2019-06-08T02:45:11.236Z,1011.29
2019-06-08T02:46:11.235Z,1011.22
2019-06-08T02:47:11.235Z,1011.26
2019-06-08T02:48:11.237Z,1011.20
2019-06-08T02:49:11.230Z,1011.18
2019-06-08T02:50:11.231Z,1011.18
2019-06-08T02:51:11.236Z,1011.19
2019-06-08T02:52:11.231Z,1011.10
2019-06-08T02:53:11.233Z,1011.10
2019-06-08T02:54:11.228Z,1011.07
2019-06-08T02:55:11.228Z,1011.10
2019-06-08T02:56:11.228Z,1011.07
2019-06-08T02:57:11.237Z,1011.13
2019-06-08T02:58:11.228Z,1011.18
2019-06-08T02:59:11.227Z,1011.27
2019-06-08T03:00:11.226Z,1011.36
2019-06-08T03:01:11.225Z,1011.49
2019-06-08T03:02:11.228Z,1011.47
2019-06-08T03:03:11.226Z,1011.53
2019-06-08T03:04:11.228Z,1011.50
2019-06-08T03:05:11.222Z,1011.58
2019-06-08T03:06:11.224Z,1011.55
2019-06-08T03:07:11.221Z,1011.63
2019-06-08T03:08:11.219Z,1011.59
2019-06-08T03:09:11.222Z,1011.61
2019-06-08T03:10:11.220Z,1011.63
2019-06-08T03:11:11.220Z,1011.65
2019-06-08T03:12:11.223Z,1011.62
2019-06-08T03:13:11.220Z,1011.61
2019-06-08T03:14:11.235Z,1011.68
2019-06-08T03:15:11.217Z,1011.64
2019-06-08T03:16:11.219Z,1011.63
2019-06-08T03:17:11.214Z,1011.64
2019-06-08T03:18:11.210Z,1011.62
2019-06-08T03:19:21.881Z,1011.64
2019-06-08T03:20:11.214Z,1011.69
2019-06-08T03:21:11.216Z,1011.68
2019-06-08T03:22:11.388Z,1011.66
2019-06-08T03:23:11.216Z,1011.71
2019-06-08T03:24:11.210Z,1011.64
2019-06-08T03:25:11.211Z,1011.55
2019-06-08T03:26:11.208Z,1011.46
2019-06-08T03:27:11.213Z,1011.38
2019-06-08T03:28:11.210Z,1011.36
2019-06-08T03:29:11.205Z,1011.41
2019-06-08T03:30:17.051Z,1011.39
2019-06-08T03:31:11.217Z,1011.40
2019-06-08T03:32:11.243Z,1011.49
2019-06-08T03:33:11.209Z,1011.62
2019-06-08T03:34:11.202Z,1011.65
2019-06-08T03:35:11.205Z,1011.76
2019-06-08T03:36:11.217Z,1011.73
2019-06-08T03:37:11.203Z,1011.70
2019-06-08T03:38:11.211Z,1011.63
2019-06-08T03:39:11.209Z,1011.54
2019-06-08T03:40:11.200Z,1011.52
2019-06-08T03:41:11.210Z,1011.48
2019-06-08T03:42:11.201Z,1011.48
2019-06-08T03:43:11.212Z,1011.46
2019-06-08T03:44:11.197Z,1011.48
2019-06-08T03:45:11.214Z,1011.54
2019-06-08T03:46:11.202Z,1011.55
2019-06-08T03:47:11.197Z,1011.55
2019-06-08T03:48:11.196Z,1011.60
2019-06-08T03:49:11.193Z,1011.61
2019-06-08T03:50:11.194Z,1011.54
2019-06-08T03:51:11.192Z,1011.53
2019-06-08T03:52:11.192Z,1011.45
2019-06-08T03:53:11.192Z,1011.44
2019-06-08T03:54:11.196Z,1011.49
2019-06-08T03:55:11.198Z,1011.45
2019-06-08T03:56:11.193Z,1011.39
2019-06-08T03:57:11.206Z,1011.36
2019-06-08T03:58:11.191Z,1011.36
2019-06-08T03:59:11.187Z,1011.29
2019-06-08T04:00:13.231Z,1011.20
2019-06-08T04:01:11.186Z,1011.21
2019-06-08T04:02:11.186Z,1011.16
2019-06-08T04:03:11.188Z,1011.16
2019-06-08T04:04:11.184Z,1011.20
2019-06-08T04:05:11.183Z,1011.24
2019-06-08T04:06:11.186Z,1011.24
2019-06-08T04:07:11.183Z,1011.28
2019-06-08T04:08:11.182Z,1011.23
2019-06-08T04:09:11.178Z,1011.26
2019-06-08T04:10:11.181Z,1011.30
2019-06-08T04:11:11.183Z,1011.27
2019-06-08T04:12:11.181Z,1011.26
2019-06-08T04:13:11.886Z,1011.30
2019-06-08T04:14:11.183Z,1011.34
2019-06-08T04:15:11.198Z,1011.42
2019-06-08T04:16:11.180Z,1011.45
2019-06-08T04:17:11.188Z,1011.47
2019-06-08T04:18:11.180Z,1011.46
2019-06-08T04:19:11.183Z,1011.43
2019-06-08T04:20:12.205Z,1011.44
2019-06-08T04:21:11.193Z,1011.58
2019-06-08T04:22:11.187Z,1011.59
2019-06-08T04:23:11.179Z,1011.51
2019-06-08T04:24:11.178Z,1011.47
2019-06-08T04:25:11.175Z,1011.45
2019-06-08T04:26:11.176Z,1011.46
2019-06-08T04:27:11.178Z,1011.48
2019-06-08T04:28:11.171Z,1011.58
2019-06-08T04:29:11.166Z,1011.59
2019-06-08T04:30:11.178Z,1011.63
2019-06-08T04:31:11.168Z,1011.71
2019-06-08T04:32:11.167Z,1011.77
2019-06-08T04:33:11.165Z,1011.82
2019-06-08T04:34:11.163Z,1011.90
2019-06-08T04:35:11.165Z,1012.04
2019-06-08T04:36:11.172Z,1012.10
2019-06-08T04:37:11.164Z,1012.11
2019-06-08T04:38:11.170Z,1012.09
2019-06-08T04:39:11.161Z,1012.14
2019-06-08T04:40:11.164Z,1012.17
2019-06-08T04:41:11.160Z,1012.21
2019-06-08T04:42:11.161Z,1012.12
2019-06-08T04:43:11.161Z,1012.14
2019-06-08T04:44:11.164Z,1012.18
2019-06-08T04:45:11.157Z,1012.20
2019-06-08T04:46:11.166Z,1012.34
2019-06-08T04:47:11.153Z,1012.32
2019-06-08T04:48:11.165Z,1012.35
2019-06-08T04:49:11.155Z,1012.36
2019-06-08T04:50:22.532Z,1012.39
2019-06-08T04:51:11.153Z,1012.42
2019-06-08T04:52:11.154Z,1012.39
2019-06-08T04:53:11.153Z,1012.38
2019-06-08T04:54:14.350Z,1012.43
2019-06-08T04:55:11.154Z,1012.37
2019-06-08T04:56:11.154Z,1012.36
2019-06-08T04:57:11.154Z,1012.40
2019-06-08T04:58:11.156Z,1012.44
2019-06-08T04:59:11.154Z,1012.48
2019-06-08T05:00:13.015Z,1012.48
2019-06-08T05:01:11.151Z,1012.50
2019-06-08T05:02:11.150Z,1012.53
2019-06-08T05:03:11.153Z,1012.48
2019-06-08T05:04:11.149Z,1012.54
2019-06-08T05:05:11.149Z,1012.56
2019-06-08T05:06:11.153Z,1012.58
2019-06-08T05:07:11.150Z,1012.61
2019-06-08T05:08:11.150Z,1012.61
2019-06-08T05:09:11.148Z,1012.65
2019-06-08T05:10:11.151Z,1012.66
2019-06-08T05:11:11.158Z,1012.61
2019-06-08T05:12:11.148Z,1012.79
2019-06-08T05:13:11.147Z,1012.74
2019-06-08T05:14:11.147Z,1012.75
2019-06-08T05:15:11.147Z,1012.79
2019-06-08T05:16:11.148Z,1012.77
2019-06-08T05:17:11.145Z,1012.83
2019-06-08T05:18:11.146Z,1012.93
2019-06-08T05:19:11.148Z,1012.93
2019-06-08T05:20:11.146Z,1013.00
2019-06-08T05:21:11.143Z,1012.99
2019-06-08T05:22:11.147Z,1013.04
2019-06-08T05:23:11.147Z,1013.08
2019-06-08T05:24:11.147Z,1013.06
2019-06-08T05:25:11.143Z,1013.06
2019-06-08T05:26:11.143Z,1013.03
2019-06-08T05:27:11.243Z,1013.05
2019-06-08T05:28:11.145Z,1013.05
2019-06-08T05:29:11.160Z,1013.06
2019-06-08T05:30:11.146Z,1013.11
2019-06-08T05:31:11.151Z,1013.15
2019-06-08T05:32:11.153Z,1013.17
2019-06-08T05:33:11.148Z,1013.22
2019-06-08T05:34:11.145Z,1013.35
2019-06-08T05:35:11.145Z,1013.30
2019-06-08T05:36:11.183Z,1013.33
2019-06-08T05:37:11.147Z,1013.28
2019-06-08T05:38:11.147Z,1013.39
2019-06-08T05:39:11.153Z,1013.43
2019-06-08T05:40:11.166Z,1013.45
2019-06-08T05:41:11.145Z,1013.48
2019-06-08T05:42:11.145Z,1013.51
2019-06-08T05:43:11.147Z,1013.49
2019-06-08T05:44:11.152Z,1013.44
2019-06-08T05:45:11.148Z,1013.38
2019-06-08T05:46:11.149Z,1013.37
2019-06-08T05:47:11.149Z,1013.34
2019-06-08T05:48:11.156Z,1013.28
2019-06-08T05:49:11.153Z,1013.29
2019-06-08T05:50:11.151Z,1013.26
2019-06-08T05:51:11.157Z,1013.26
2019-06-08T05:52:11.157Z,1013.25
2019-06-08T05:53:11.155Z,1013.29
2019-06-08T05:54:11.160Z,1013.32
2019-06-08T05:55:11.162Z,1013.33
2019-06-08T05:56:11.163Z,1013.33
2019-06-08T05:57:11.167Z,1013.32
2019-06-08T05:58:11.169Z,1013.37
2019-06-08T05:59:11.169Z,1013.35
2019-06-08T06:00:11.234Z,1013.41
2019-06-08T06:01:11.173Z,1013.44
2019-06-08T06:02:11.178Z,1013.46
2019-06-08T06:03:11.184Z,1013.48
2019-06-08T06:04:11.216Z,1013.47
2019-06-08T06:05:11.182Z,1013.53
2019-06-08T06:06:11.186Z,1013.49
2019-06-08T06:07:11.191Z,1013.49
2019-06-08T06:08:18.898Z,1013.59
2019-06-08T06:09:11.199Z,1013.64
2019-06-08T06:10:11.200Z,1013.63
2019-06-08T06:11:11.205Z,1013.60
2019-06-08T06:12:11.207Z,1013.61
2019-06-08T06:13:11.209Z,1013.57
2019-06-08T06:14:11.216Z,1013.55
2019-06-08T06:15:11.224Z,1013.57
2019-06-08T06:16:11.224Z,1013.51
2019-06-08T06:17:11.221Z,1013.53
2019-06-08T06:18:11.230Z,1013.53
2019-06-08T06:19:11.241Z,1013.55
2019-06-08T06:20:11.237Z,1013.61
2019-06-08T06:21:12.267Z,1013.49
2019-06-08T06:22:11.246Z,1013.52
2019-06-08T06:23:11.258Z,1013.54
2019-06-08T06:24:11.257Z,1013.51
2019-06-08T06:25:11.263Z,1013.49
2019-06-08T06:26:11.265Z,1013.57
2019-06-08T06:27:11.271Z,1013.57
2019-06-08T06:28:11.275Z,1013.53
2019-06-08T06:29:11.280Z,1013.55
2019-06-08T06:30:11.282Z,1013.53
2019-06-08T06:31:11.288Z,1013.46
2019-06-08T06:32:11.299Z,1013.46
2019-06-08T06:33:11.307Z,1013.51
2019-06-08T06:34:11.316Z,1013.47
2019-06-08T06:35:11.315Z,1013.44
2019-06-08T06:36:11.313Z,1013.45
2019-06-08T06:37:11.319Z,1013.49
2019-06-08T06:38:11.323Z,1013.56
2019-06-08T06:39:11.328Z,1013.49
2019-06-08T06:40:11.331Z,1013.53
2019-06-08T06:41:11.339Z,1013.57
2019-06-08T06:42:11.337Z,1013.62
2019-06-08T06:43:11.345Z,1013.85
2019-06-08T06:44:11.355Z,1013.77
2019-06-08T06:45:11.355Z,1013.79
2019-06-08T06:46:11.359Z,1013.71
2019-06-08T06:47:11.361Z,1013.55
2019-06-08T06:48:11.374Z,1013.54
2019-06-08T06:49:11.371Z,1013.55
2019-06-08T06:50:11.377Z,1013.61
2019-06-08T06:51:25.316Z,1013.62
2019-06-08T06:52:11.384Z,1013.60
2019-06-08T06:53:11.389Z,1013.61
2019-06-08T06:54:11.394Z,1013.63
2019-06-08T06:55:11.399Z,1013.72
2019-06-08T06:56:11.405Z,1013.69
2019-06-08T06:57:11.409Z,1013.75
2019-06-08T06:58:11.421Z,1013.79
2019-06-08T06:59:11.417Z,1013.86
2019-06-08T07:00:11.432Z,1013.88
2019-06-08T07:01:11.431Z,1014.01
2019-06-08T07:02:11.459Z,1014.07
2019-06-08T07:03:11.441Z,1014.19
2019-06-08T07:04:11.448Z,1014.12
2019-06-08T07:05:11.454Z,1014.10
2019-06-08T07:06:11.465Z,1014.23
2019-06-08T07:07:11.468Z,1014.23
2019-06-08T07:08:11.475Z,1014.33
2019-06-08T07:09:11.472Z,1014.34
2019-06-08T07:10:11.487Z,1014.36
2019-06-08T07:11:11.497Z,1014.32
2019-06-08T07:12:11.494Z,1014.37
2019-06-08T07:13:11.500Z,1014.38
2019-06-08T07:14:11.511Z,1014.40
2019-06-08T07:15:11.523Z,1014.41
2019-06-08T07:16:18.528Z,1014.42
2019-06-08T07:17:11.527Z,1014.38
2019-06-08T07:18:11.532Z,1014.31
2019-06-08T07:19:11.537Z,1014.29
2019-06-08T07:20:11.546Z,1014.24
2019-06-08T07:21:11.547Z,1014.24
2019-06-08T07:22:11.550Z,1014.26
2019-06-08T07:23:11.558Z,1014.31
2019-06-08T07:24:11.564Z,1014.32
2019-06-08T07:25:11.566Z,1014.39
2019-06-08T07:26:11.577Z,1014.44
2019-06-08T07:27:11.575Z,1014.40
2019-06-08T07:28:11.575Z,1014.45
2019-06-08T07:29:11.631Z,1014.52
2019-06-08T07:30:11.598Z,1014.57
2019-06-08T07:31:11.598Z,1014.63
2019-06-08T07:32:11.612Z,1014.55
2019-06-08T07:33:11.602Z,1014.58
2019-06-08T07:34:11.609Z,1014.64
2019-06-08T07:35:11.615Z,1014.61
2019-06-08T07:36:11.624Z,1014.56
2019-06-08T07:37:11.630Z,1014.64
2019-06-08T07:38:11.644Z,1014.66
2019-06-08T07:39:11.641Z,1014.73
2019-06-08T07:40:11.648Z,1014.73
2019-06-08T07:41:11.649Z,1014.73
2019-06-08T07:42:11.658Z,1014.69
2019-06-08T07:43:11.663Z,1014.68
2019-06-08T07:44:11.670Z,1014.78
2019-06-08T07:45:11.675Z,1014.76
2019-06-08T07:46:11.677Z,1014.82
2019-06-08T07:47:11.689Z,1014.83
2019-06-08T07:48:11.689Z,1014.81
2019-06-08T07:49:11.690Z,1014.86
2019-06-08T07:50:11.697Z,1014.82
2019-06-08T07:51:11.701Z,1014.73
2019-06-08T07:52:11.714Z,1014.67
2019-06-08T07:53:11.707Z,1014.79
2019-06-08T07:54:11.720Z,1014.70
2019-06-08T07:55:11.713Z,1014.72
2019-06-08T07:56:11.725Z,1014.79
2019-06-08T07:57:11.724Z,1014.84
2019-06-08T07:58:11.728Z,1014.88
2019-06-08T07:59:11.733Z,1014.88
2019-06-08T08:00:11.737Z,1014.84
2019-06-08T08:01:11.748Z,1014.85
2019-06-08T08:02:11.746Z,1014.84
2019-06-08T08:03:11.748Z,1014.89
2019-06-08T08:04:11.752Z,1014.89
2019-06-08T08:05:11.755Z,1015.02
2019-06-08T08:06:11.758Z,1014.99
2019-06-08T08:07:11.762Z,1015.06
2019-06-08T08:08:11.761Z,1015.11
2019-06-08T08:09:11.766Z,1015.11
2019-06-08T08:10:11.838Z,1015.21
2019-06-08T08:11:11.771Z,1015.21
2019-06-08T08:12:12.402Z,1015.30
2019-06-08T08:13:11.785Z,1015.26
2019-06-08T08:14:11.774Z,1015.27
2019-06-08T08:15:11.782Z,1015.20
2019-06-08T08:16:11.787Z,1015.20
2019-06-08T08:17:11.788Z,1015.30
2019-06-08T08:18:11.793Z,1015.30
2019-06-08T08:19:11.793Z,1015.34
2019-06-08T08:20:11.794Z,1015.30
2019-06-08T08:21:21.299Z,1015.28
2019-06-08T08:22:22.191Z,1015.19
2019-06-08T08:23:11.809Z,1015.21
2019-06-08T08:24:11.811Z,1015.15
2019-06-08T08:25:11.811Z,1015.12
2019-06-08T08:26:11.814Z,1015.09
2019-06-08T08:27:11.817Z,1015.07
2019-06-08T08:28:11.814Z,1014.98
2019-06-08T08:29:11.826Z,1014.90
2019-06-08T08:30:11.822Z,1014.93
2019-06-08T08:31:15.083Z,1014.94
2019-06-08T08:32:11.829Z,1014.96
2019-06-08T08:33:11.831Z,1014.99
2019-06-08T08:34:11.834Z,1014.99
2019-06-08T08:35:11.837Z,1015.00
2019-06-08T08:36:11.842Z,1015.02
2019-06-08T08:37:11.844Z,1015.08
2019-06-08T08:38:11.842Z,1015.15
2019-06-08T08:39:11.846Z,1015.15
2019-06-08T08:40:11.857Z,1015.13
2019-06-08T08:41:11.851Z,1015.10
2019-06-08T08:42:11.851Z,1015.08
2019-06-08T08:43:11.851Z,1015.02
2019-06-08T08:44:11.858Z,1014.99
2019-06-08T08:45:11.861Z,1014.97
2019-06-08T08:46:11.872Z,1014.90
2019-06-08T08:47:11.862Z,1014.82
2019-06-08T08:48:24.637Z,1014.78
2019-06-08T08:49:13.005Z,1014.75
2019-06-08T08:50:11.869Z,1014.72
2019-06-08T08:51:11.873Z,1014.67
2019-06-08T08:52:11.881Z,1014.68
2019-06-08T08:53:11.877Z,1014.71
2019-06-08T08:54:11.878Z,1014.72
2019-06-08T08:55:11.882Z,1014.59
2019-06-08T08:56:11.885Z,1014.57
2019-06-08T08:57:11.888Z,1014.62
2019-06-08T08:58:11.887Z,1014.58
2019-06-08T08:59:11.893Z,1014.53
2019-06-08T09:00:11.893Z,1014.43
2019-06-08T09:01:11.893Z,1014.37
2019-06-08T09:02:11.897Z,1014.31
2019-06-08T09:03:28.436Z,1014.32
2019-06-08T09:04:11.912Z,1014.48
2019-06-08T09:05:11.914Z,1014.67
2019-06-08T09:06:11.910Z,1014.83
2019-06-08T09:07:11.917Z,1014.90
2019-06-08T09:08:11.914Z,1015.01
2019-06-08T09:09:11.914Z,1015.01
2019-06-08T09:10:11.925Z,1015.09
2019-06-08T09:11:11.911Z,1015.14
2019-06-08T09:12:11.915Z,1015.14
2019-06-08T09:13:12.286Z,1015.17
2019-06-08T09:14:14.015Z,1015.19
2019-06-08T09:15:11.938Z,1015.24
2019-06-08T09:16:11.932Z,1015.25
2019-06-08T09:17:11.927Z,1015.24
2019-06-08T09:18:11.935Z,1015.23
2019-06-08T09:19:11.932Z,1015.28
2019-06-08T09:20:15.275Z,1015.33
2019-06-08T09:21:11.933Z,1015.40
2019-06-08T09:22:11.951Z,1015.42
2019-06-08T09:23:16.317Z,1015.38
2019-06-08T09:24:12.006Z,1015.35
2019-06-08T09:25:13.658Z,1015.44
2019-06-08T09:26:13.343Z,1015.51
2019-06-08T09:27:11.997Z,1015.49
2019-06-08T09:28:11.974Z,1015.50
2019-06-08T09:29:12.032Z,1015.52
2019-06-08T09:30:11.954Z,1015.59
2019-06-08T09:31:13.088Z,1015.56
2019-06-08T09:32:11.959Z,1015.54
2019-06-08T09:33:11.965Z,1015.57
2019-06-08T09:34:15.312Z,1015.65
2019-06-08T09:35:11.964Z,1015.64
2019-06-08T09:36:11.977Z,1015.68
2019-06-08T09:37:11.970Z,1015.67
2019-06-08T09:38:11.970Z,1015.77
2019-06-08T09:39:13.127Z,1015.68
2019-06-08T09:40:11.985Z,1015.63
2019-06-08T09:41:11.977Z,1015.51
2019-06-08T09:42:12.014Z,1015.41
2019-06-08T09:43:13.227Z,1015.39
2019-06-08T09:44:12.185Z,1015.34
2019-06-08T09:45:11.989Z,1015.37
2019-06-08T09:46:11.993Z,1015.51
2019-06-08T09:47:12.543Z,1015.54
2019-06-08T09:48:12.007Z,1015.63
2019-06-08T09:49:12.116Z,1015.71
2019-06-08T09:50:12.015Z,1015.77
2019-06-08T09:51:12.013Z,1015.80
2019-06-08T09:52:12.030Z,1015.81
2019-06-08T09:53:23.930Z,1015.71
2019-06-08T09:54:13.076Z,1015.49
2019-06-08T09:55:12.018Z,1015.21
2019-06-08T09:56:12.018Z,1015.07
2019-06-08T09:57:12.014Z,1015.13
2019-06-08T09:58:12.049Z,1015.49
2019-06-08T09:59:15.191Z,1015.82
2019-06-08T10:00:17.760Z,1015.90
2019-06-08T10:01:12.508Z,1015.83
2019-06-08T10:02:13.020Z,1015.87
2019-06-08T10:03:12.039Z,1015.95
2019-06-08T10:04:12.031Z,1016.00
2019-06-08T10:05:12.029Z,1015.94
2019-06-08T10:06:12.755Z,1016.07
2019-06-08T10:07:12.031Z,1015.98
2019-06-08T10:08:12.037Z,1015.96
2019-06-08T10:09:12.036Z,1015.97
2019-06-08T10:10:12.050Z,1015.97
2019-06-08T10:11:12.040Z,1015.91
2019-06-08T10:12:12.049Z,1015.79
2019-06-08T10:13:12.071Z,1015.86
2019-06-08T10:14:12.969Z,1015.94
2019-06-08T10:15:12.096Z,1015.93
2019-06-08T10:16:12.058Z,1015.87
2019-06-08T10:17:12.053Z,1015.90
2019-06-08T10:18:12.054Z,1015.81
2019-06-08T10:19:12.068Z,1015.86
2019-06-08T10:20:12.066Z,1015.85
2019-06-08T10:21:12.061Z,1015.85
2019-06-08T10:22:12.065Z,1015.82
2019-06-08T10:23:29.841Z,1015.81
2019-06-08T10:24:12.067Z,1015.86
2019-06-08T10:25:12.071Z,1015.81
2019-06-08T10:26:12.074Z,1015.92
2019-06-08T10:27:12.216Z,1015.88
2019-06-08T10:28:15.939Z,1015.86
2019-06-08T10:29:12.100Z,1015.86
2019-06-08T10:30:12.086Z,1015.90
2019-06-08T10:31:12.084Z,1015.82
2019-06-08T10:32:12.087Z,1015.83
2019-06-08T10:33:12.084Z,1015.73
2019-06-08T10:34:12.239Z,1015.59
2019-06-08T10:35:12.093Z,1015.55
2019-06-08T10:36:13.032Z,1015.59
2019-06-08T10:37:13.589Z,1015.60
2019-06-08T10:38:12.239Z,1015.66
2019-06-08T10:39:12.277Z,1015.68
2019-06-08T10:40:12.122Z,1015.70
2019-06-08T10:41:17.659Z,1015.71
2019-06-08T10:42:12.103Z,1015.65
2019-06-08T10:43:12.109Z,1015.68
2019-06-08T10:44:14.301Z,1015.63
2019-06-08T10:45:14.326Z,1015.58
2019-06-08T10:46:17.192Z,1015.57
2019-06-08T10:47:12.158Z,1015.57
2019-06-08T10:48:12.114Z,1015.68
2019-06-08T10:49:14.421Z,1015.75
2019-06-08T10:50:15.296Z,1015.81
2019-06-08T10:51:13.133Z,1015.79
2019-06-08T10:52:12.489Z,1015.84
2019-06-08T10:53:12.924Z,1015.82
2019-06-08T10:54:12.126Z,1015.78
2019-06-08T10:55:12.470Z,1015.72
2019-06-08T10:56:12.483Z,1015.76
2019-06-08T10:57:12.174Z,1015.76
2019-06-08T10:58:12.131Z,1015.78
2019-06-08T10:59:12.559Z,1015.87
2019-06-08T11:00:20.188Z,1015.77
2019-06-08T11:01:13.113Z,1015.72
2019-06-08T11:02:14.259Z,1015.74
2019-06-08T11:03:12.158Z,1015.81
2019-06-08T11:04:12.159Z,1015.83
2019-06-08T11:05:14.064Z,1015.79
2019-06-08T11:06:13.258Z,1015.77
2019-06-08T11:07:15.810Z,1015.75
2019-06-08T11:08:14.603Z,1015.72
2019-06-08T11:09:14.850Z,1015.67
2019-06-08T11:10:12.725Z,1015.67
2019-06-08T11:11:12.171Z,1015.67
2019-06-08T11:12:15.090Z,1015.66
2019-06-08T11:13:14.997Z,1015.74
2019-06-08T11:14:13.036Z,1015.66
2019-06-08T11:15:12.172Z,1015.62
2019-06-08T11:16:13.526Z,1015.63
2019-06-08T11:17:12.174Z,1015.57
2019-06-08T11:18:13.604Z,1015.66
2019-06-08T11:19:13.624Z,1015.60
2019-06-08T11:20:13.715Z,1015.59
2019-06-08T11:21:12.891Z,1015.66
2019-06-08T11:22:14.460Z,1015.57
2019-06-08T11:23:12.573Z,1015.44
2019-06-08T11:24:21.713Z,1015.44
2019-06-08T11:25:15.850Z,1015.43
2019-06-08T11:26:19.850Z,1015.42
2019-06-08T11:27:13.005Z,1015.39
2019-06-08T11:28:15.024Z,1015.35
2019-06-08T11:29:13.820Z,1015.44
2019-06-08T11:30:20.391Z,1015.50
2019-06-08T11:31:15.962Z,1015.54
2019-06-08T11:32:12.716Z,1015.66
2019-06-08T11:33:12.587Z,1015.65
2019-06-08T11:34:12.214Z,1015.69
2019-06-08T11:35:12.712Z,1015.69
2019-06-08T11:36:14.728Z,1015.67
2019-06-08T11:37:13.454Z,1015.64
2019-06-08T11:38:12.777Z,1015.80
2019-06-08T11:39:12.847Z,1015.75
2019-06-08T11:40:12.970Z,1015.76
2019-06-08T11:41:13.686Z,1015.80
2019-06-08T11:42:13.154Z,1015.77
2019-06-08T11:43:12.234Z,1015.75
2019-06-08T11:44:14.681Z,1015.73
2019-06-08T11:45:13.048Z,1015.71
2019-06-08T11:46:12.238Z,1015.63
2019-06-08T11:47:13.449Z,1015.64
2019-06-08T11:48:12.251Z,1015.57
2019-06-08T11:49:14.860Z,1015.62
2019-06-08T11:50:13.406Z,1015.66
2019-06-08T11:51:13.115Z,1015.66
2019-06-08T11:52:12.254Z,1015.71
2019-06-08T11:53:14.675Z,1015.73
2019-06-08T11:54:27.259Z,1015.66
2019-06-08T11:55:13.150Z,1015.67
2019-06-08T11:56:13.590Z,1015.70
2019-06-08T11:57:12.981Z,1015.68
2019-06-08T11:58:13.761Z,1015.81
2019-06-08T11:59:14.327Z,1015.69
2019-06-08T12:00:24.134Z,1015.82
2019-06-08T12:01:14.804Z,1015.81
2019-06-08T12:02:14.130Z,1015.87
2019-06-08T12:03:13.130Z,1015.81
2019-06-08T12:04:12.281Z,1015.73
2019-06-08T12:05:14.152Z,1015.75